Time;durP1;ratioP1;P1;durP2;ratioP2;P2;SDS_P1;SDS_P2;PMS_P1;PMS_P2;Temp;Humidity;BMP_temperature;BMP_pressure;BME280_temperature;BME280_humidity;BME280_pressure;Samples;Min_cycle;Max_cycle;Signal;HPM_P1;HPM_P2
2022/06/14 00:00:56;;;;;;;9.03;2.93;;;;;;;;;;5108355;28;20894;-71
2022/06/14 00:03:25;;;;;;;6.03;2.40;;;;;;;;;;5114919;28;20546;-71
2022/06/14 00:05:53;;;;;;;6.50;2.10;;;;;;;;;;5115678;28;20470;-71
2022/06/14 00:08:25;;;;;;;3.73;1.80;;;;;;;;;;5114731;28;20443;-71
2022/06/14 00:10:53;;;;;;;3.93;1.60;;;;;;;;;;5115128;28;20557;-71
2022/06/14 00:13:21;;;;;;;4.70;1.70;;;;;;;;;;5114466;28;20447;-71
2022/06/14 00:15:49;;;;;;;7.20;1.70;;;;;;;;;;5114826;28;20527;-71
2022/06/14 00:18:17;;;;;;;4.80;2.00;;;;;;;;;;5114892;28;20454;-71
2022/06/14 00:20:49;;;;;;;3.77;1.70;;;;;;;;;;5107216;28;20482;-71
2022/06/14 00:23:17;;;;;;;8.83;2.50;;;;;;;;;;5114663;28;20496;-71
2022/06/14 00:25:48;;;;;;;5.07;1.97;;;;;;;;;;5107643;28;20527;-71
2022/06/14 00:28:17;;;;;;;5.13;2.60;;;;;;;;;;5115092;28;20553;-71
2022/06/14 00:30:46;;;;;;;5.77;2.10;;;;;;;;;;5115177;28;20490;-71
2022/06/14 00:33:14;;;;;;;6.30;1.83;;;;;;;;;;5114681;28;20486;-71
2022/06/14 00:35:42;;;;;;;5.87;2.20;;;;;;;;;;5115005;28;20462;-71
2022/06/14 00:38:13;;;;;;;8.93;2.20;;;;;;;;;;5108759;28;20736;-70
2022/06/14 00:40:42;;;;;;;7.30;1.80;;;;;;;;;;5114146;28;20470;-71
2022/06/14 00:43:16;;;;;;;8.03;2.03;;;;;;;;;;5115462;28;20455;-71
2022/06/14 00:46:02;;;;;;;5.43;2.27;;;;;;;;;;5115185;28;20960;-71
2022/06/14 00:48:31;;;;;;;4.63;1.90;;;;;;;;;;5115290;28;20516;-71
2022/06/14 00:51:02;;;;;;;3.80;2.00;;;;;;;;;;5115119;28;20443;-71
2022/06/14 00:53:35;;;;;;;11.83;2.60;;;;;;;;;;5117915;27;21040;-71
2022/06/14 00:56:06;;;;;;;6.03;2.53;;;;;;;;;;5118704;27;20806;-71
2022/06/14 00:58:38;;;;;;;30.37;4.10;;;;;;;;;;5118183;27;20447;-71
2022/06/14 01:01:08;;;;;;;6.13;2.70;;;;;;;;;;5117981;27;20516;-71
2022/06/14 01:03:39;;;;;;;5.50;2.27;;;;;;;;;;5097916;28;20439;-71
2022/06/14 01:06:08;;;;;;;7.27;1.93;;;;;;;;;;5109865;28;20831;-71
2022/06/14 01:08:37;;;;;;;6.30;1.60;;;;;;;;;;5118093;28;20450;-71
2022/06/14 01:11:07;;;;;;;8.70;2.43;;;;;;;;;;5118936;27;20463;-72
2022/06/14 01:13:38;;;;;;;5.30;2.00;;;;;;;;;;5118356;27;20530;-71
2022/06/14 01:16:06;;;;;;;6.80;2.00;;;;;;;;;;5118433;27;20515;-71
2022/06/14 01:18:35;;;;;;;6.60;2.20;;;;;;;;;;5117468;27;20451;-71
2022/06/14 01:21:03;;;;;;;4.23;2.07;;;;;;;;;;5118723;27;20482;-71
2022/06/14 01:23:33;;;;;;;7.17;1.93;;;;;;;;;;5117126;27;20455;-72
2022/06/14 01:26:06;;;;;;;7.20;1.80;;;;;;;;;;5117955;27;20454;-71
2022/06/14 01:28:35;;;;;;;5.83;1.50;;;;;;;;;;5106217;27;20454;-71
2022/06/14 01:31:05;;;;;;;6.90;2.07;;;;;;;;;;5118717;27;20447;-70
2022/06/14 01:33:36;;;;;;;7.10;2.47;;;;;;;;;;5118350;27;20483;-71
2022/06/14 01:36:07;;;;;;;4.40;2.40;;;;;;;;;;5117603;27;20455;-71
2022/06/14 01:38:36;;;;;;;6.37;2.00;;;;;;;;;;5118338;27;20455;-71
2022/06/14 01:41:08;;;;;;;6.23;2.20;;;;;;;;;;5117569;27;20491;-71
2022/06/14 01:43:52;;;;;;;4.87;2.47;;;;;;;;;;5118252;28;21000;-71
2022/06/14 01:46:22;;;;;;;5.03;2.03;;;;;;;;;;5117808;27;20458;-71
2022/06/14 01:48:55;;;;;;;4.90;1.80;;;;;;;;;;5118505;27;20721;-71
2022/06/14 01:54:17;;;;;;;5.10;2.20;;;;;;;;;;5109919;27;20460;-70
2022/06/14 01:56:48;;;;;;;4.77;2.00;;;;;;;;;;5117939;27;20747;-71
2022/06/14 01:59:18;;;;;;;5.90;2.03;;;;;;;;;;5097936;28;20456;-71
2022/06/14 02:01:49;;;;;;;5.57;1.90;;;;;;;;;;5097235;28;20484;-71
2022/06/14 02:04:38;;;;;;;8.03;1.67;;;;;;;;;;5096469;28;20456;-71
2022/06/14 02:07:09;;;;;;;11.90;2.30;;;;;;;;;;5100782;28;20455;-71
2022/06/14 02:09:44;;;;;;;5.10;1.90;;;;;;;;;;5117183;27;20460;-71
2022/06/14 02:12:15;;;;;;;4.93;1.70;;;;;;;;;;5117656;27;20461;-71
2022/06/14 02:14:49;;;;;;;6.17;1.77;;;;;;;;;;5117442;27;20484;-71
2022/06/14 02:17:19;;;;;;;6.80;2.33;;;;;;;;;;5116771;27;20535;-70
2022/06/14 02:19:50;;;;;;;8.00;2.00;;;;;;;;;;5116933;27;20484;-70
2022/06/14 02:22:21;;;;;;;7.63;2.17;;;;;;;;;;5116884;28;20543;-70
2022/06/14 02:24:51;;;;;;;6.47;1.60;;;;;;;;;;5116598;27;20490;-70
2022/06/14 02:27:20;;;;;;;9.90;2.30;;;;;;;;;;5117296;27;20873;-69
2022/06/14 02:29:50;;;;;;;11.53;2.10;;;;;;;;;;5117304;27;20451;-70
2022/06/14 02:32:21;;;;;;;9.33;1.83;;;;;;;;;;5116746;27;20493;-70
2022/06/14 02:34:51;;;;;;;7.07;2.07;;;;;;;;;;5116616;27;20542;-71
2022/06/14 02:37:21;;;;;;;6.67;2.70;;;;;;;;;;5116310;27;20764;-71
2022/06/14 02:39:54;;;;;;;6.17;2.20;;;;;;;;;;5117184;27;20727;-71
2022/06/14 02:42:23;;;;;;;4.27;1.67;;;;;;;;;;5116900;27;20486;-71
2022/06/14 02:44:52;;;;;;;6.43;2.00;;;;;;;;;;5116659;27;20834;-71
2022/06/14 02:47:22;;;;;;;13.33;2.43;;;;;;;;;;5116175;27;20561;-71
2022/06/14 02:49:53;;;;;;;3.47;2.20;;;;;;;;;;5117140;28;20474;-71
2022/06/14 02:52:23;;;;;;;4.50;2.10;;;;;;;;;;5116487;27;20447;-71
2022/06/14 02:54:55;;;;;;;8.10;2.83;;;;;;;;;;5116988;28;20777;-71
2022/06/14 02:57:35;;;;;;;9.53;2.17;;;;;;;;;;5116107;27;20535;-72
2022/06/14 03:00:06;;;;;;;4.73;1.70;;;;;;;;;;5116893;27;20488;-72
2022/06/14 03:02:36;;;;;;;7.27;2.03;;;;;;;;;;5115945;28;20494;-72
2022/06/14 03:05:08;;;;;;;10.83;2.67;;;;;;;;;;5115697;28;20457;-71
2022/06/14 03:07:41;;;;;;;8.33;3.20;;;;;;;;;;5115967;27;20520;-72
2022/06/14 03:10:11;;;;;;;9.23;2.43;;;;;;;;;;5116226;27;20485;-71
2022/06/14 03:12:41;;;;;;;6.63;1.97;;;;;;;;;;5115886;27;20462;-72
2022/06/14 03:15:13;;;;;;;8.27;2.57;;;;;;;;;;5115687;28;20442;-71
2022/06/14 03:17:47;;;;;;;6.63;2.13;;;;;;;;;;5115666;27;20898;-71
2022/06/14 03:20:20;;;;;;;10.40;2.40;;;;;;;;;;5114553;27;20519;-71
2022/06/14 03:22:52;;;;;;;5.17;2.37;;;;;;;;;;5115299;27;20792;-71
2022/06/14 03:25:27;;;;;;;5.53;2.03;;;;;;;;;;5114957;27;20465;-71
2022/06/14 03:27:57;;;;;;;4.00;2.00;;;;;;;;;;5115292;28;20563;-71
2022/06/14 03:30:27;;;;;;;6.67;2.50;;;;;;;;;;5115237;27;20752;-71
2022/06/14 03:33:01;;;;;;;7.00;2.50;;;;;;;;;;5115749;27;20466;-71
2022/06/14 03:35:31;;;;;;;4.70;1.60;;;;;;;;;;5114280;28;20469;-71
2022/06/14 03:38:01;;;;;;;3.40;1.97;;;;;;;;;;5115174;28;20520;-71
2022/06/14 03:40:30;;;;;;;7.43;2.10;;;;;;;;;;5115091;28;20457;-71
2022/06/14 03:43:01;;;;;;;6.50;2.33;;;;;;;;;;5115858;28;20493;-71
2022/06/14 03:45:32;;;;;;;7.80;2.03;;;;;;;;;;5115323;28;20451;-71
2022/06/14 03:48:00;;;;;;;4.20;2.00;;;;;;;;;;5115592;28;20466;-71
2022/06/14 03:50:30;;;;;;;4.37;2.07;;;;;;;;;;5114384;28;20470;-71
2022/06/14 03:53:16;;;;;;;4.70;2.57;;;;;;;;;;5115011;28;20462;-70
2022/06/14 03:55:52;;;;;;;5.53;3.00;;;;;;;;;;5114338;28;20532;-71
2022/06/14 03:58:26;;;;;;;4.87;1.80;;;;;;;;;;5108836;28;20532;-71
2022/06/14 04:00:56;;;;;;;7.10;1.53;;;;;;;;;;5094986;28;20454;-71
2022/06/14 04:03:34;;;;;;;6.60;1.87;;;;;;;;;;5095429;28;20532;-71
2022/06/14 04:06:09;;;;;;;7.50;2.77;;;;;;;;;;5094249;28;21022;-71
2022/06/14 04:08:42;;;;;;;8.20;2.13;;;;;;;;;;5095295;28;20458;-71
2022/06/14 04:11:17;;;;;;;5.87;3.10;;;;;;;;;;5093169;28;20470;-71
2022/06/14 04:13:48;;;;;;;5.40;2.17;;;;;;;;;;5095475;28;20505;-71
2022/06/14 04:16:20;;;;;;;6.50;2.27;;;;;;;;;;5094032;28;20447;-71
2022/06/14 04:18:51;;;;;;;3.50;1.83;;;;;;;;;;5094372;28;20462;-72
2022/06/14 04:21:26;;;;;;;6.40;2.23;;;;;;;;;;5094730;28;20455;-72
2022/06/14 04:23:58;;;;;;;3.53;1.60;;;;;;;;;;5094646;28;20490;-71
2022/06/14 04:26:32;;;;;;;9.97;2.60;;;;;;;;;;5095002;28;20583;-71
2022/06/14 04:29:03;;;;;;;3.40;1.57;;;;;;;;;;5097354;28;20451;-71
2022/06/14 04:31:32;;;;;;;6.07;2.30;;;;;;;;;;5099210;28;20514;-72
2022/06/14 04:34:04;;;;;;;6.67;3.63;;;;;;;;;;5098413;28;20458;-71
2022/06/14 04:36:38;;;;;;;6.20;2.10;;;;;;;;;;5098317;28;20455;-71
2022/06/14 04:39:08;;;;;;;4.60;1.90;;;;;;;;;;5097458;28;20459;-71
2022/06/14 04:41:40;;;;;;;6.50;2.10;;;;;;;;;;5097741;28;20549;-71
2022/06/14 04:44:09;;;;;;;3.97;2.00;;;;;;;;;;5096743;28;20571;-71
2022/06/14 04:46:39;;;;;;;7.03;2.23;;;;;;;;;;5097123;28;20729;-71
2022/06/14 04:49:09;;;;;;;7.73;2.47;;;;;;;;;;5095899;28;20504;-71
2022/06/14 04:51:41;;;;;;;8.50;2.33;;;;;;;;;;5096555;28;20549;-71
2022/06/14 04:54:12;;;;;;;6.37;2.00;;;;;;;;;;5095920;28;20736;-71
2022/06/14 04:56:43;;;;;;;3.80;2.50;;;;;;;;;;5097087;28;20548;-73
2022/06/14 04:59:14;;;;;;;6.23;2.00;;;;;;;;;;5097928;28;20467;-72
2022/06/14 05:01:45;;;;;;;4.70;1.70;;;;;;;;;;5107915;27;20462;-72
2022/06/14 05:04:17;;;;;;;6.07;1.60;;;;;;;;;;5109216;28;20755;-72
2022/06/14 05:06:47;;;;;;;8.10;2.10;;;;;;;;;;5101577;28;20473;-72
2022/06/14 05:09:18;;;;;;;4.30;1.50;;;;;;;;;;5096417;28;20467;-72
2022/06/14 05:11:51;;;;;;;5.70;1.50;;;;;;;;;;5095542;28;20860;-72
2022/06/14 05:14:22;;;;;;;7.23;2.10;;;;;;;;;;5102149;27;20457;-72
2022/06/14 05:16:54;;;;;;;5.97;1.70;;;;;;;;;;5116054;27;20454;-71
2022/06/14 05:19:28;;;;;;;5.50;2.27;;;;;;;;;;5112594;27;20831;-71
2022/06/14 05:22:00;;;;;;;7.63;1.57;;;;;;;;;;5112559;27;20454;-72
2022/06/14 05:24:28;;;;;;;9.23;1.67;;;;;;;;;;5112886;27;20465;-72
2022/06/14 05:27:15;;;;;;;3.60;1.40;;;;;;;;;;5113565;27;20447;-72
2022/06/14 05:29:46;;;;;;;6.37;2.07;;;;;;;;;;5112230;28;21061;-71
2022/06/14 05:32:18;;;;;;;6.43;2.30;;;;;;;;;;5115786;27;20459;-72
2022/06/14 05:34:49;;;;;;;8.40;2.33;;;;;;;;;;5110300;27;20522;-71
2022/06/14 05:37:20;;;;;;;13.00;2.20;;;;;;;;;;5114486;27;20905;-71
2022/06/14 05:39:49;;;;;;;4.83;1.80;;;;;;;;;;5113435;27;20461;-71
2022/06/14 05:42:20;;;;;;;7.00;1.60;;;;;;;;;;5110915;28;20455;-71
2022/06/14 05:44:50;;;;;;;5.10;2.13;;;;;;;;;;5093409;28;20460;-71
2022/06/14 05:47:19;;;;;;;8.33;1.73;;;;;;;;;;5093964;28;20894;-71
2022/06/14 05:49:50;;;;;;;5.33;1.40;;;;;;;;;;5093071;28;20471;-71
2022/06/14 05:52:21;;;;;;;5.90;2.00;;;;;;;;;;5093810;28;20584;-71
2022/06/14 05:54:51;;;;;;;6.40;1.60;;;;;;;;;;5094388;28;20460;-71
2022/06/14 05:57:25;;;;;;;3.63;1.33;;;;;;;;;;5099737;28;20478;-71
2022/06/14 05:59:56;;;;;;;6.40;1.60;;;;;;;;;;5109024;27;20590;-71
2022/06/14 06:02:27;;;;;;;8.43;2.20;;;;;;;;;;5112442;27;20874;-71
2022/06/14 06:04:57;;;;;;;5.13;2.03;;;;;;;;;;5113601;27;20470;-72
2022/06/14 06:07:26;;;;;;;4.20;1.63;;;;;;;;;;5114975;27;20523;-71
2022/06/14 06:10:02;;;;;;;6.63;1.27;;;;;;;;;;5111228;27;20722;-70
2022/06/14 06:12:33;;;;;;;10.93;1.60;;;;;;;;;;5110405;27;20474;-72
2022/06/14 06:15:04;;;;;;;4.67;1.20;;;;;;;;;;5113474;27;20550;-72
2022/06/14 06:17:35;;;;;;;5.10;1.40;;;;;;;;;;5114781;27;21103;-72
2022/06/14 06:20:06;;;;;;;7.43;1.70;;;;;;;;;;5115031;27;20543;-72
2022/06/14 06:22:36;;;;;;;7.97;1.83;;;;;;;;;;5113882;27;20447;-72
2022/06/14 06:25:08;;;;;;;5.40;1.50;;;;;;;;;;5113433;27;20443;-72
2022/06/14 06:27:43;;;;;;;3.60;1.37;;;;;;;;;;5114801;27;20447;-71
2022/06/14 06:30:14;;;;;;;5.50;1.93;;;;;;;;;;5113618;27;21042;-71
2022/06/14 06:32:42;;;;;;;8.83;1.90;;;;;;;;;;5114585;28;20516;-70
2022/06/14 06:35:11;;;;;;;7.00;1.77;;;;;;;;;;5114067;27;20478;-70
2022/06/14 06:37:41;;;;;;;3.33;1.17;;;;;;;;;;5114208;27;20527;-70
2022/06/14 06:40:12;;;;;;;3.13;1.07;;;;;;;;;;5108275;27;20502;-70
2022/06/14 06:42:43;;;;;;;8.03;1.63;;;;;;;;;;5092621;28;20463;-71
2022/06/14 06:45:14;;;;;;;6.03;1.37;;;;;;;;;;5092075;28;20559;-71
2022/06/14 06:47:43;;;;;;;2.93;1.40;;;;;;;;;;5092902;28;20882;-71
2022/06/14 06:50:16;;;;;;;6.87;1.97;;;;;;;;;;5093003;28;20483;-70
2022/06/14 06:52:54;;;;;;;15.10;4.27;;;;;;;;;;5093503;28;20470;-71
2022/06/14 06:55:28;;;;;;;5.63;2.20;;;;;;;;;;5094373;28;20801;-71
2022/06/14 06:57:59;;;;;;;4.37;1.17;;;;;;;;;;5093341;28;20463;-71
2022/06/14 07:00:36;;;;;;;6.90;1.33;;;;;;;;;;5108958;28;20877;-72
2022/06/14 07:03:06;;;;;;;5.03;1.53;;;;;;;;;;5113305;28;20482;-70
2022/06/14 07:05:37;;;;;;;5.80;1.43;;;;;;;;;;5112157;28;21021;-71
2022/06/14 07:08:12;;;;;;;5.10;1.20;;;;;;;;;;5109003;28;20479;-71
2022/06/14 07:10:42;;;;;;;9.23;1.40;;;;;;;;;;5113201;27;20893;-71
2022/06/14 07:13:20;;;;;;;6.73;1.80;;;;;;;;;;5112880;27;20462;-71
2022/06/14 07:15:52;;;;;;;6.33;1.80;;;;;;;;;;5112528;27;20942;-72
2022/06/14 07:18:23;;;;;;;7.33;1.50;;;;;;;;;;5112538;27;20461;-71
2022/06/14 07:20:53;;;;;;;5.30;1.80;;;;;;;;;;5111540;27;20676;-71
2022/06/14 07:23:29;;;;;;;7.20;1.60;;;;;;;;;;5094526;28;20919;-71
2022/06/14 07:26:01;;;;;;;6.27;1.40;;;;;;;;;;5089700;28;20458;-71
2022/06/14 07:28:34;;;;;;;5.33;1.63;;;;;;;;;;5088395;28;20774;-71
2022/06/14 07:31:05;;;;;;;6.33;1.97;;;;;;;;;;5101349;28;20453;-71
2022/06/14 07:33:39;;;;;;;11.33;2.40;;;;;;;;;;5111507;27;20544;-70
2022/06/14 07:36:13;;;;;;;9.10;2.13;;;;;;;;;;5111388;28;20825;-70
2022/06/14 07:38:51;;;;;;;6.17;1.47;;;;;;;;;;5096322;28;20458;-70
2022/06/14 07:41:30;;;;;;;6.50;1.43;;;;;;;;;;5107663;27;20468;-71
2022/06/14 07:44:10;;;;;;;4.10;1.40;;;;;;;;;;5110849;28;20490;-71
2022/06/14 07:46:42;;;;;;;4.50;1.47;;;;;;;;;;5112303;28;20526;-73
2022/06/14 07:49:13;;;;;;;4.90;1.60;;;;;;;;;;5095166;28;20517;-71
2022/06/14 07:51:44;;;;;;;5.90;1.70;;;;;;;;;;5093931;28;20739;-71
2022/06/14 07:54:16;;;;;;;5.43;1.53;;;;;;;;;;5095415;28;20908;-72
2022/06/14 07:56:53;;;;;;;6.30;1.37;;;;;;;;;;5100619;28;20491;-72
2022/06/14 07:59:28;;;;;;;6.60;1.90;;;;;;;;;;5100026;28;20541;-72
2022/06/14 08:02:06;;;;;;;4.40;1.33;;;;;;;;;;5113249;28;20470;-73
2022/06/14 08:04:39;;;;;;;6.90;2.20;;;;;;;;;;5116992;27;20592;-73
2022/06/14 08:07:11;;;;;;;6.70;2.73;;;;;;;;;;5116948;27;21032;-72
2022/06/14 08:09:43;;;;;;;5.20;1.40;;;;;;;;;;5117549;27;20597;-72
2022/06/14 08:12:15;;;;;;;5.33;1.43;;;;;;;;;;5113750;27;20487;-72
2022/06/14 08:14:48;;;;;;;5.50;1.30;;;;;;;;;;5101279;28;20487;-72
2022/06/14 08:17:18;;;;;;;4.33;1.33;;;;;;;;;;5096392;28;20459;-72
2022/06/14 08:19:54;;;;;;;3.40;1.10;;;;;;;;;;5095649;28;20497;-72
2022/06/14 08:22:26;;;;;;;9.03;1.60;;;;;;;;;;5107353;28;20446;-73
2022/06/14 08:25:00;;;;;;;7.07;1.50;;;;;;;;;;5117064;27;20559;-72
2022/06/14 08:27:31;;;;;;;6.80;2.00;;;;;;;;;;5116712;27;20452;-72
2022/06/14 08:30:05;;;;;;;6.60;2.03;;;;;;;;;;5114647;27;20542;-72
2022/06/14 08:32:36;;;;;;;6.53;1.90;;;;;;;;;;5111096;27;20933;-74
2022/06/14 08:35:06;;;;;;;4.67;2.23;;;;;;;;;;5116889;27;20490;-73
2022/06/14 08:37:38;;;;;;;6.13;1.30;;;;;;;;;;5117209;27;20454;-73
2022/06/14 08:40:14;;;;;;;6.43;1.43;;;;;;;;;;5115913;28;20872;-73
2022/06/14 08:42:44;;;;;;;6.80;1.90;;;;;;;;;;5116055;27;20577;-73
2022/06/14 08:45:16;;;;;;;7.97;1.57;;;;;;;;;;5116294;27;20579;-72
2022/06/14 08:47:58;;;;;;;7.80;1.57;;;;;;;;;;5116262;27;20477;-72
2022/06/14 08:50:40;;;;;;;6.73;2.03;;;;;;;;;;5115140;27;20434;-72
2022/06/14 08:53:38;;;;;;;3.07;1.10;;;;;;;;;;5104603;27;21123;-71
2022/06/14 08:56:26;;;;;;;4.73;1.80;;;;;;;;;;5107142;28;20936;-72
2022/06/14 08:59:15;;;;;;;3.70;1.10;;;;;;;;;;5097471;27;20478;-72
2022/06/14 09:01:58;;;;;;;4.97;1.60;;;;;;;;;;5070359;27;20446;-72
2022/06/14 09:04:46;;;;;;;7.67;1.37;;;;;;;;;;5109959;27;20996;-72
2022/06/14 09:07:23;;;;;;;5.23;1.43;;;;;;;;;;5098416;27;20467;-72
2022/06/14 09:10:10;;;;;;;3.97;1.40;;;;;;;;;;5112277;27;20492;-72
2022/06/14 09:12:58;;;;;;;5.03;1.40;;;;;;;;;;5112543;27;20573;-71
2022/06/14 09:15:43;;;;;;;9.20;1.80;;;;;;;;;;5110804;27;20451;-71
2022/06/14 09:18:20;;;;;;;10.30;1.83;;;;;;;;;;5101762;27;20498;-73
2022/06/14 09:20:55;;;;;;;4.23;1.70;;;;;;;;;;5113854;27;20451;-71
2022/06/14 09:23:31;;;;;;;4.33;1.63;;;;;;;;;;5105646;28;20470;-72
2022/06/14 09:26:17;;;;;;;5.30;1.87;;;;;;;;;;5111547;28;20462;-71
2022/06/14 09:29:04;;;;;;;5.33;1.33;;;;;;;;;;5114043;27;20447;-71
2022/06/14 09:31:42;;;;;;;8.73;1.90;;;;;;;;;;5108841;27;20458;-72
2022/06/14 09:34:22;;;;;;;7.20;2.00;;;;;;;;;;5114362;27;20926;-72
2022/06/14 09:37:06;;;;;;;12.03;6.73;;;;;;;;;;5111687;27;20536;-71
2022/06/14 09:40:03;;;;;;;3.73;1.57;;;;;;;;;;5103998;28;20462;-71
2022/06/14 09:42:51;;;;;;;5.07;1.47;;;;;;;;;;5111520;27;20564;-71
2022/06/14 09:45:42;;;;;;;9.23;1.77;;;;;;;;;;5111530;27;20521;-72
2022/06/14 09:48:35;;;;;;;6.40;1.10;;;;;;;;;;5109868;27;20915;-72
2022/06/14 09:51:29;;;;;;;5.03;1.40;;;;;;;;;;5113922;27;20450;-71
2022/06/14 09:54:16;;;;;;;6.10;1.67;;;;;;;;;;5038296;28;20503;-71
2022/06/14 09:57:02;;;;;;;3.93;1.37;;;;;;;;;;5112868;27;20447;-72
2022/06/14 09:59:53;;;;;;;4.13;1.23;;;;;;;;;;5104486;27;20501;-73
2022/06/14 10:02:27;;;;;;;5.70;1.37;;;;;;;;;;5098684;27;20466;-72
2022/06/14 10:05:02;;;;;;;4.23;1.40;;;;;;;;;;5109744;27;20574;-72
2022/06/14 10:07:54;;;;;;;4.77;1.73;;;;;;;;;;5102443;28;20466;-72
2022/06/14 10:10:35;;;;;;;7.73;1.30;;;;;;;;;;5112590;27;20527;-72
2022/06/14 10:13:28;;;;;;;6.83;2.10;;;;;;;;;;5094873;27;20548;-72
2022/06/14 10:16:04;;;;;;;5.30;1.63;;;;;;;;;;5096831;28;20543;-72
2022/06/14 10:18:41;;;;;;;5.03;1.90;;;;;;;;;;5095017;28;20475;-72
2022/06/14 10:21:12;;;;;;;7.00;2.10;;;;;;;;;;5112900;27;20446;-71
2022/06/14 10:23:50;;;;;;;7.73;2.00;;;;;;;;;;5104675;27;20563;-72
2022/06/14 10:29:15;;;;;;;6.90;1.60;;;;;;;;;;5103164;28;20521;-70
2022/06/14 10:31:50;;;;;;;6.77;2.10;;;;;;;;;;5110283;28;20458;-72
2022/06/14 10:34:23;;;;;;;5.60;1.40;;;;;;;;;;5107033;27;20532;-72
2022/06/14 10:37:02;;;;;;;5.27;1.60;;;;;;;;;;5112213;27;20482;-72
2022/06/14 10:39:42;;;;;;;7.03;2.00;;;;;;;;;;5103411;28;20474;-72
2022/06/14 10:42:15;;;;;;;4.20;1.70;;;;;;;;;;5112313;27;20466;-72
2022/06/14 10:44:47;;;;;;;6.00;2.40;;;;;;;;;;5111198;28;20566;-71
2022/06/14 10:47:22;;;;;;;3.80;1.40;;;;;;;;;;5107617;27;20463;-70
2022/06/14 10:50:07;;;;;;;5.10;1.80;;;;;;;;;;5107833;28;20450;-72
2022/06/14 10:53:03;;;;;;;9.20;1.83;;;;;;;;;;5101347;27;20536;-72
2022/06/14 10:55:53;;;;;;;6.70;2.00;;;;;;;;;;5108779;27;20474;-72
2022/06/14 10:58:50;;;;;;;7.80;2.07;;;;;;;;;;5107703;27;20459;-71
2022/06/14 11:01:30;;;;;;;5.03;2.00;;;;;;;;;;5109181;27;20482;-71
2022/06/14 11:04:01;;;;;;;4.50;1.80;;;;;;;;;;5114310;27;20882;-71
2022/06/14 11:06:37;;;;;;;4.83;2.40;;;;;;;;;;5112733;27;20457;-71
2022/06/14 11:09:10;;;;;;;5.20;1.77;;;;;;;;;;5111955;27;20788;-71
2022/06/14 11:12:02;;;;;;;9.60;1.93;;;;;;;;;;5105404;27;20494;-72
2022/06/14 11:14:35;;;;;;;5.20;2.17;;;;;;;;;;5109195;27;20546;-71
2022/06/14 11:17:18;;;;;;;12.27;2.40;;;;;;;;;;5104368;28;20471;-72
2022/06/14 11:19:57;;;;;;;5.90;2.03;;;;;;;;;;5097317;28;20513;-72
2022/06/14 11:22:35;;;;;;;4.10;1.63;;;;;;;;;;5109416;27;20494;-72
2022/06/14 11:25:13;;;;;;;5.73;1.90;;;;;;;;;;5107279;28;20507;-73
2022/06/14 11:30:36;;;;;;;8.10;1.50;;;;;;;;;;5096807;28;20842;-73
2022/06/14 11:33:07;;;;;;;2.77;1.30;;;;;;;;;;5106682;28;20462;-73
2022/06/14 11:35:51;;;;;;;7.00;2.40;;;;;;;;;;5110930;27;20931;-73
2022/06/14 11:38:29;;;;;;;6.10;1.60;;;;;;;;;;5101031;28;20842;-73
2022/06/14 11:41:01;;;;;;;4.03;1.70;;;;;;;;;;5094641;28;20846;-71
2022/06/14 11:43:37;;;;;;;4.33;1.30;;;;;;;;;;5111117;28;20565;-73
2022/06/14 11:46:19;;;;;;;6.73;1.70;;;;;;;;;;5116426;27;20484;-71
2022/06/14 11:49:12;;;;;;;6.77;1.77;;;;;;;;;;5109893;28;20562;-72
2022/06/14 11:51:47;;;;;;;7.00;1.50;;;;;;;;;;5117324;27;20901;-73
2022/06/14 11:54:20;;;;;;;6.10;2.23;;;;;;;;;;5112447;28;20975;-74
2022/06/14 11:56:56;;;;;;;3.57;1.00;;;;;;;;;;5109273;28;20459;-73
2022/06/14 11:59:34;;;;;;;8.90;1.60;;;;;;;;;;5111669;28;20943;-73
2022/06/14 12:02:23;;;;;;;5.73;1.73;;;;;;;;;;5107543;28;20458;-73
2022/06/14 12:05:01;;;;;;;4.10;1.53;;;;;;;;;;5106552;28;20487;-73
2022/06/14 12:07:32;;;;;;;4.70;1.37;;;;;;;;;;5111796;28;20458;-73
2022/06/14 12:10:20;;;;;;;6.40;1.43;;;;;;;;;;5109683;28;20479;-73
2022/06/14 12:12:54;;;;;;;6.00;1.50;;;;;;;;;;5109546;28;20458;-74
2022/06/14 12:15:28;;;;;;;5.03;1.47;;;;;;;;;;5100904;28;20983;-73
2022/06/14 12:18:07;;;;;;;5.03;1.67;;;;;;;;;;5092167;28;20443;-73
2022/06/14 12:20:38;;;;;;;3.43;1.40;;;;;;;;;;5110343;28;20454;-74
2022/06/14 12:23:11;;;;;;;8.40;2.70;;;;;;;;;;5110834;28;20562;-73
2022/06/14 12:28:35;;;;;;;8.37;1.97;;;;;;;;;;5112277;28;20450;-73
2022/06/14 12:31:06;;;;;;;4.37;1.40;;;;;;;;;;5111864;28;20457;-74
2022/06/14 12:33:38;;;;;;;5.93;1.47;;;;;;;;;;5111705;28;20443;-73
2022/06/14 12:36:15;;;;;;;4.90;1.60;;;;;;;;;;5098828;28;20474;-73
2022/06/14 12:38:52;;;;;;;6.07;2.10;;;;;;;;;;5115325;28;20434;-74
2022/06/14 12:41:28;;;;;;;3.77;1.40;;;;;;;;;;5115000;28;20474;-74
2022/06/14 12:44:05;;;;;;;5.20;1.50;;;;;;;;;;5112357;28;20518;-74
2022/06/14 12:46:37;;;;;;;13.10;7.40;;;;;;;;;;5092637;28;20482;-74
2022/06/14 12:49:15;;;;;;;8.07;2.67;;;;;;;;;;5105451;27;20761;-72
2022/06/14 12:51:48;;;;;;;4.30;1.50;;;;;;;;;;5113154;27;20458;-74
2022/06/14 12:54:20;;;;;;;6.00;2.13;;;;;;;;;;5133055;27;20458;-74
2022/06/14 12:56:57;;;;;;;12.33;5.23;;;;;;;;;;5103048;27;20489;-74
2022/06/14 12:59:28;;;;;;;7.50;1.90;;;;;;;;;;5106712;28;20454;-74
2022/06/14 13:02:03;;;;;;;4.07;1.57;;;;;;;;;;5116536;27;20447;-74
2022/06/14 13:04:36;;;;;;;4.17;1.13;;;;;;;;;;5115988;27;20464;-74
2022/06/14 13:07:24;;;;;;;12.00;1.73;;;;;;;;;;5116016;28;20508;-73
2022/06/14 13:09:58;;;;;;;5.83;1.97;;;;;;;;;;5115346;27;20496;-71
2022/06/14 13:12:33;;;;;;;6.43;1.87;;;;;;;;;;5115975;27;20458;-74
2022/06/14 13:15:09;;;;;;;7.37;1.87;;;;;;;;;;5115225;27;20943;-74
2022/06/14 13:17:53;;;;;;;3.73;1.20;;;;;;;;;;5116253;27;20486;-72
2022/06/14 13:20:33;;;;;;;3.90;1.40;;;;;;;;;;5114204;27;20462;-72
2022/06/14 13:23:29;;;;;;;6.60;2.57;;;;;;;;;;5115834;27;21060;-73
2022/06/14 13:26:25;;;;;;;6.03;2.40;;;;;;;;;;5117163;27;20483;-74
2022/06/14 13:29:03;;;;;;;4.10;1.00;;;;;;;;;;5116095;27;20479;-72
2022/06/14 13:31:39;;;;;;;4.07;1.70;;;;;;;;;;5115097;27;20451;-72
2022/06/14 13:34:18;;;;;;;3.27;1.30;;;;;;;;;;5113428;27;20446;-73
2022/06/14 13:36:56;;;;;;;4.53;1.77;;;;;;;;;;5113850;27;20462;-73
2022/06/14 13:39:30;;;;;;;7.93;1.33;;;;;;;;;;5113251;27;20720;-73
2022/06/14 13:42:07;;;;;;;5.93;1.60;;;;;;;;;;5109091;27;20467;-74
2022/06/14 13:44:39;;;;;;;7.00;1.77;;;;;;;;;;5092852;28;20784;-73
2022/06/14 13:47:10;;;;;;;6.13;2.17;;;;;;;;;;5093603;28;20943;-73
2022/06/14 13:49:41;;;;;;;4.10;1.50;;;;;;;;;;5094598;28;20476;-72
2022/06/14 13:52:17;;;;;;;5.53;2.50;;;;;;;;;;5091800;28;20507;-73
2022/06/14 13:54:48;;;;;;;8.40;1.50;;;;;;;;;;5103763;27;20466;-75
2022/06/14 13:57:31;;;;;;;5.57;1.87;;;;;;;;;;5114298;27;20615;-73
2022/06/14 14:00:11;;;;;;;6.97;1.90;;;;;;;;;;5112469;27;20459;-74
2022/06/14 14:02:48;;;;;;;3.33;1.93;;;;;;;;;;5095323;28;20459;-73
2022/06/14 14:05:20;;;;;;;3.00;1.50;;;;;;;;;;5102193;27;20483;-72
2022/06/14 14:07:59;;;;;;;3.40;1.17;;;;;;;;;;5109758;28;20789;-73
2022/06/14 14:10:52;;;;;;;8.07;1.57;;;;;;;;;;5113647;27;20991;-73
2022/06/14 14:13:30;;;;;;;5.90;1.87;;;;;;;;;;5104919;27;20887;-73
2022/06/14 14:16:01;;;;;;;8.33;2.13;;;;;;;;;;5114284;28;20489;-73
2022/06/14 14:18:41;;;;;;;6.53;2.07;;;;;;;;;;5113191;27;20545;-72
2022/06/14 14:21:11;;;;;;;9.30;1.90;;;;;;;;;;5114502;27;20465;-72
2022/06/14 14:23:53;;;;;;;6.10;1.73;;;;;;;;;;5114124;27;20442;-72
2022/06/14 14:26:26;;;;;;;7.47;1.90;;;;;;;;;;5113209;28;20611;-73
2022/06/14 14:29:03;;;;;;;5.83;1.93;;;;;;;;;;5110264;27;21098;-73
2022/06/14 14:31:37;;;;;;;7.70;1.80;;;;;;;;;;5113850;28;20486;-72
2022/06/14 14:34:11;;;;;;;7.97;2.00;;;;;;;;;;5111690;27;20462;-74
2022/06/14 14:37:01;;;;;;;6.83;1.70;;;;;;;;;;5108470;28;20471;-73
2022/06/14 14:40:08;;;;;;;7.70;2.17;;;;;;;;;;5110667;27;20472;-73
2022/06/14 14:42:49;;;;;;;4.43;1.57;;;;;;;;;;5087595;28;20455;-74
2022/06/14 14:45:20;;;;;;;8.87;5.10;;;;;;;;;;5092774;28;20495;-73
2022/06/14 14:47:59;;;;;;;5.30;2.60;;;;;;;;;;5103480;27;20471;-75
2022/06/14 14:50:37;;;;;;;3.50;1.30;;;;;;;;;;5097643;27;20924;-74
2022/06/14 14:53:18;;;;;;;8.80;1.70;;;;;;;;;;5116835;27;20489;-73
2022/06/14 14:58:43;;;;;;;4.60;1.53;;;;;;;;;;5094363;27;20505;-73
2022/06/14 15:07:08;;;;;;;7.40;1.80;;;;;;;;;;5092080;28;20513;-73
2022/06/14 15:09:45;;;;;;;5.63;1.40;;;;;;;;;;5100742;27;20495;-75
2022/06/14 15:15:21;;;;;;;3.83;1.47;;;;;;;;;;5104161;28;20464;-73
2022/06/14 15:21:02;;;;;;;4.30;1.53;;;;;;;;;;5112112;28;21019;-73
2022/06/14 15:23:38;;;;;;;3.60;1.50;;;;;;;;;;5113167;27;20893;-74
2022/06/14 15:26:07;;;;;;;3.50;1.50;;;;;;;;;;5111844;28;20494;-72
2022/06/14 15:28:48;;;;;;;5.23;1.53;;;;;;;;;;5098802;28;20859;-74
2022/06/14 15:34:19;;;;;;;6.63;3.53;;;;;;;;;;5106449;27;20636;-73
2022/06/14 15:37:10;;;;;;;6.10;2.20;;;;;;;;;;5111158;27;20505;-74
2022/06/14 15:40:02;;;;;;;4.43;2.00;;;;;;;;;;5109731;27;20507;-72
2022/06/14 15:42:34;;;;;;;4.43;1.40;;;;;;;;;;5097283;28;20946;-74
2022/06/14 15:45:28;;;;;;;5.13;1.30;;;;;;;;;;5109155;28;20458;-76
2022/06/14 15:48:03;;;;;;;3.77;1.13;;;;;;;;;;5091718;28;20530;-74
2022/06/14 15:50:36;;;;;;;5.83;1.67;;;;;;;;;;5090478;28;20463;-75
2022/06/14 15:53:06;;;;;;;5.90;1.60;;;;;;;;;;5090502;28;20448;-75
2022/06/14 15:58:50;;;;;;;6.00;1.97;;;;;;;;;;5031816;28;21014;-75
2022/06/14 16:01:33;;;;;;;5.70;2.10;;;;;;;;;;5100173;28;21159;-74